メインページ
METAR-TAF:

METAR-TAF

空港 :

松山空港

松山, 日本

緯度: 33-49N, 経度: 132-42E, 海抜: 4m

現時点の気象観測

当レポートは22分前の07:00(UTC)に作成
南/南西の風 5kt、東/南東から西/南西の間で変化する
気温 28°C
湿度 74%
気圧 1007 hPa
視程10km以上
高度2500ftの雲はほとんどない
高度5000ftの雲は散在している
高度7000ftの千切れ雲あり

METAR: RJOM 200700Z 21005KT 120V250 9999 FEW025 SCT050 BKN070 28/23 Q1007

時間: 16:22 (07:22 UTC)

予報

当レポートは2時間15分前の05:07(UTC)に作成
予報は20日の 06時(UTC)から 21日の 12時(UTC)まで有効
南西の風 6kt
視程10km以上
高度2500ftの雲はほとんどない
高度4500ftの千切れ雲あり

TAF: RJOM 200507Z 2006/2112 23006KT 9999 FEW025 BKN045

4,000以上の空港の気象観測と天気予報(METAR報とTAF報)

利用可能な観測所は地図上に黄色い丸と赤い丸で示す。

丸の上にカーソルを重ねると観測所名を参照できる。

次にクリックすると気象観測と天気予報を参照できる。

マップの切り替え:黒色「×」印の緑ボタンをクリックして拡大、「-」印の緑ボタンをクリックして縮小、緑色の三角印をクリックして隣りの地図に切り替え


METAR-TAF: